Time;durP1;ratioP1;P1;durP2;ratioP2;P2;SDS_P1;SDS_P2;PMS_P1;PMS_P2;Temp;Humidity;BMP_temperature;BMP_pressure;BME280_temperature;BME280_humidity;BME280_pressure;Samples;Min_cycle;Max_cycle;Signal;HPM_P1;HPM_P2
2022/10/24 00:01:51;;;;;;;5.05;2.65;;;12.20;99.90;;;10.72;100.00;99983.69;4855615;29;20029;-79
2022/10/24 00:04:17;;;;;;;5.13;2.17;;;12.10;99.90;;;10.64;100.00;99982.16;4859105;29;20521;-80
2022/10/24 00:06:43;;;;;;;4.65;2.58;;;12.00;99.90;;;10.57;100.00;99978.66;4861927;29;20025;-80
2022/10/24 00:09:09;;;;;;;8.13;2.80;;;12.00;99.90;;;10.53;100.00;99989.22;4854587;29;20041;-80
2022/10/24 00:11:35;;;;;;;7.70;2.88;;;12.00;99.90;;;10.52;100.00;99984.84;4846755;29;20037;-79
2022/10/24 00:14:01;;;;;;;6.57;3.22;;;11.90;99.90;;;10.50;100.00;99987.78;4851601;29;20485;-78
2022/10/24 00:16:27;;;;;;;8.05;3.53;;;11.90;99.90;;;10.60;100.00;99997.28;4856564;29;20045;-78
2022/10/24 00:18:53;;;;;;;6.95;3.75;;;12.00;99.90;;;10.66;100.00;100001.84;4862125;29;20037;-78
2022/10/24 00:21:20;;;;;;;8.93;4.35;;;12.00;99.90;;;10.72;100.00;99992.72;4862726;29;20049;-79
2022/10/24 00:23:45;;;;;;;8.23;4.63;;;12.10;99.90;;;10.99;100.00;99991.44;4854842;29;20509;-77
2022/10/24 00:26:12;;;;;;;9.23;4.65;;;12.30;99.90;;;11.25;100.00;99981.97;4853395;29;20129;-77
2022/10/24 00:28:39;;;;;;;8.65;4.63;;;12.50;99.90;;;11.13;100.00;99967.47;4858022;29;20033;-78
2022/10/24 00:31:11;;;;;;;9.30;5.03;;;12.50;99.90;;;11.08;100.00;99984.56;4850391;29;20037;-77
2022/10/24 00:33:36;;;;;;;11.43;5.50;;;12.50;99.90;;;11.02;100.00;99980.88;4849358;29;20052;-77
2022/10/24 00:36:02;;;;;;;9.93;5.25;;;12.50;99.90;;;11.29;100.00;99994.06;4866199;29;20120;-80
2022/10/24 00:38:28;;;;;;;10.07;5.43;;;12.60;99.90;;;11.30;100.00;99995.72;4854210;29;20040;-77
2022/10/24 00:40:54;;;;;;;11.40;4.90;;;12.70;99.90;;;11.23;100.00;99992.28;4860850;29;20033;-78
2022/10/24 00:43:24;;;;;;;7.57;4.65;;;12.60;99.90;;;11.45;100.00;99997.97;4865487;29;20047;-77
2022/10/24 00:45:59;;;;;;;8.32;4.78;;;12.70;99.90;;;11.44;100.00;99968.19;4854832;29;20572;-77
2022/10/24 00:48:58;;;;;;;8.38;4.65;;;12.90;99.90;;;11.35;100.00;99976.72;4864570;29;20582;-78
2022/10/24 00:51:32;;;;;;;9.85;4.43;;;12.80;99.90;;;11.29;100.00;99993.25;4832535;29;20465;-77
2022/10/24 00:54:07;;;;;;;7.93;4.32;;;12.70;99.90;;;11.10;100.00;99976.13;4857326;29;20413;-78
2022/10/24 00:56:55;;;;;;;10.27;4.82;;;12.60;99.90;;;11.47;100.00;99995.03;4868547;29;20037;-76
2022/10/24 00:59:22;;;;;;;9.70;4.97;;;12.80;99.90;;;11.63;100.00;99983.34;4863285;29;20128;-77
2022/10/24 01:01:48;;;;;;;10.70;5.13;;;12.90;99.90;;;11.74;100.00;99978.13;4860665;29;20029;-80
2022/10/24 01:04:14;;;;;;;7.78;4.68;;;13.00;99.90;;;12.02;100.00;99985.53;4861579;29;20569;-77
2022/10/24 01:06:59;;;;;;;7.65;4.03;;;13.20;99.90;;;12.03;100.00;99972.72;4862554;29;20029;-77
2022/10/24 01:09:37;;;;;;;8.55;3.85;;;13.30;99.90;;;12.10;100.00;99964.38;4850190;29;20040;-76
2022/10/24 01:12:13;;;;;;;8.02;3.53;;;13.30;99.90;;;12.31;100.00;99976.53;4859007;29;20064;-75
2022/10/24 01:15:09;;;;;;;7.72;3.38;;;13.50;99.90;;;12.63;100.00;99981.47;4854604;29;20041;-75
2022/10/24 01:17:58;;;;;;;5.40;3.10;;;13.70;99.90;;;12.74;100.00;99991.53;4858291;29;20776;-74
2022/10/24 01:21:07;;;;;;;7.03;2.67;;;13.90;99.90;;;12.89;100.00;99993.69;4850770;29;20049;-77
2022/10/24 01:24:05;;;;;;;7.97;2.70;;;14.10;99.90;;;13.05;100.00;99989.31;4862452;29;20201;-75
2022/10/24 01:26:56;;;;;;;6.00;2.78;;;14.20;99.90;;;12.89;100.00;99998.34;4853907;29;20034;-74
2022/10/24 01:29:48;;;;;;;5.78;2.55;;;14.20;99.90;;;12.75;100.00;99986.88;4863445;29;20075;-77
2022/10/24 01:32:44;;;;;;;5.78;2.85;;;14.10;99.90;;;12.45;100.00;99983.34;4859476;29;20049;-76
2022/10/24 01:35:41;;;;;;;5.95;2.55;;;13.80;99.90;;;12.34;100.00;99960.47;4860571;29;20052;-76
2022/10/24 01:38:32;;;;;;;5.82;3.13;;;13.70;99.90;;;12.38;100.00;99963.53;4867070;29;20117;-80
2022/10/24 01:41:11;;;;;;;8.68;3.00;;;13.70;99.90;;;12.17;100.00;99949.47;4860640;29;20040;-77
2022/10/24 01:43:53;;;;;;;8.25;2.80;;;13.60;99.90;;;12.00;100.00;99951.31;4850543;29;20952;-78
2022/10/24 01:46:29;;;;;;;9.52;3.20;;;13.40;99.90;;;11.99;100.00;99957.84;4864051;29;20105;-76
2022/10/24 01:49:07;;;;;;;6.72;2.92;;;13.30;99.90;;;11.87;100.00;99955.16;4858178;29;20053;-77
2022/10/24 01:51:35;;;;;;;6.18;2.75;;;13.30;99.90;;;11.91;100.00;99951.66;4854034;29;20046;-78
2022/10/24 01:54:03;;;;;;;;;;;13.20;99.90;;;11.96;100.00;99948.22;4860859;29;20035;-77
2022/10/24 01:56:29;;;;;;;6.38;2.75;;;13.30;99.90;;;11.98;100.00;99945.25;4862023;29;19916;-76
2022/10/24 01:59:05;;;;;;;8.93;3.17;;;13.30;99.90;;;12.00;100.00;99926.69;4842733;29;20035;-75
2022/10/24 02:01:31;;;;;;;9.50;3.13;;;13.30;99.90;;;12.14;100.00;99928.09;4856515;29;20029;-77
2022/10/24 02:04:04;;;;;;;9.15;3.08;;;13.40;99.90;;;12.07;100.00;99927.41;4857964;29;20036;-76
2022/10/24 02:06:40;;;;;;;7.90;2.92;;;13.40;99.90;;;12.06;100.00;99925.75;4860314;29;20062;-76
2022/10/24 02:09:14;;;;;;;8.65;2.95;;;13.40;99.90;;;12.14;100.00;99927.25;4851694;29;20097;-76
2022/10/24 02:11:43;;;;;;;7.35;3.20;;;13.40;99.90;;;12.25;100.00;99925.56;4854008;29;20070;-80
2022/10/24 02:14:33;;;;;;;10.38;3.10;;;13.60;99.90;;;12.38;100.00;99930.69;4849892;29;20051;-77
2022/10/24 02:17:02;;;;;;;6.28;3.00;;;13.60;99.90;;;12.58;100.00;99926.66;4857900;29;20026;-76
2022/10/24 02:19:30;;;;;;;5.18;2.90;;;13.80;99.90;;;12.57;100.00;99925.81;4865860;29;20544;-76
2022/10/24 02:22:38;;;;;;;8.20;3.13;;;13.90;99.90;;;12.68;100.00;99931.47;4863149;29;20113;-79
2022/10/24 02:25:14;;;;;;;7.65;2.67;;;13.90;99.90;;;12.69;100.00;99917.53;4846430;29;20051;-78
2022/10/24 02:27:53;;;;;;;7.78;2.92;;;14.00;99.90;;;12.62;100.00;99906.78;4863331;29;20036;-77
2022/10/24 02:30:23;;;;;;;4.60;2.60;;;14.00;99.90;;;12.72;100.00;99905.28;4867058;29;20037;-76
2022/10/24 02:32:58;;;;;;;10.43;3.30;;;14.00;99.90;;;12.64;100.00;99898.31;4865287;29;20041;-78
2022/10/24 02:35:29;;;;;;;6.90;2.38;;;14.00;99.90;;;12.55;100.00;99861.50;4862241;29;20493;-77
2022/10/24 02:38:20;;;;;;;5.82;2.70;;;13.90;99.90;;;12.68;100.00;99884.97;4859597;29;20049;-78
2022/10/24 02:40:49;;;;;;;9.38;3.17;;;13.90;99.90;;;12.71;100.00;99895.41;4854974;29;20053;-79
2022/10/24 02:43:20;;;;;;;6.32;2.80;;;14.00;99.90;;;12.71;100.00;99907.16;4859974;29;20879;-76
2022/10/24 02:45:47;;;;;;;6.55;2.70;;;14.00;99.90;;;12.66;100.00;99897.00;4867167;29;20041;-79
2022/10/24 02:48:18;;;;;;;;;;;14.10;99.90;;;12.71;100.00;99898.97;4848592;29;20076;-77
2022/10/24 02:50:44;;;;;;;9.18;2.65;;;14.10;99.90;;;12.72;100.00;99906.09;4854473;29;19999;-77
2022/10/24 02:53:15;;;;;;;6.25;2.33;;;14.10;99.90;;;12.77;100.00;99902.63;4848422;29;20065;-76
2022/10/24 02:55:41;;;;;;;5.47;2.40;;;14.10;99.90;;;12.78;100.00;99896.06;4865767;29;20079;-77
2022/10/24 02:58:07;;;;;;;6.47;2.35;;;14.10;99.90;;;12.80;100.00;99919.38;4858737;29;20084;-78
2022/10/24 03:00:33;;;;;;;6.55;2.50;;;14.10;99.90;;;12.74;100.00;99897.63;4857718;29;20025;-75
2022/10/24 03:02:58;;;;;;;7.75;2.50;;;14.10;99.90;;;12.68;100.00;99895.91;4840059;29;20421;-75
2022/10/24 03:05:24;;;;;;;6.80;2.60;;;14.00;99.90;;;12.74;100.00;99906.69;4848783;29;20045;-76
2022/10/24 03:07:50;;;;;;;8.98;2.30;;;14.00;99.90;;;12.79;100.00;99895.81;4859453;29;20034;-77
2022/10/24 03:10:16;;;;;;;11.07;2.70;;;14.00;99.90;;;12.73;100.00;99885.88;4851192;29;20044;-79
2022/10/24 03:12:42;;;;;;;5.40;2.60;;;14.00;99.90;;;12.71;100.00;99885.28;4865630;29;20029;-76
2022/10/24 03:15:08;;;;;;;6.60;2.65;;;14.00;99.90;;;12.68;100.00;99896.72;4869041;29;20073;-76
2022/10/24 03:17:34;;;;;;;5.43;2.90;;;14.00;99.90;;;12.57;100.00;99895.72;4867191;29;20489;-77
2022/10/24 03:20:00;;;;;;;8.38;2.75;;;13.90;99.90;;;12.45;100.00;99893.06;4858805;29;20033;-76
2022/10/24 03:22:25;;;;;;;5.30;2.38;;;13.80;99.90;;;12.34;100.00;99889.34;4863681;29;20033;-80
2022/10/24 03:24:51;;;;;;;7.00;3.08;;;13.70;99.90;;;12.21;100.00;99882.28;4855032;29;20041;-78
2022/10/24 03:27:17;;;;;;;6.60;3.40;;;13.60;99.90;;;12.25;100.00;99879.06;4857579;29;20042;-76
2022/10/24 03:29:42;;;;;;;7.47;3.00;;;13.60;99.90;;;12.34;100.00;99874.84;4857420;29;20056;-75
2022/10/24 03:32:08;;;;;;;9.40;3.10;;;13.60;99.90;;;12.37;100.00;99875.19;4864208;29;20033;-75
2022/10/24 03:34:34;;;;;;;6.70;3.38;;;13.70;99.90;;;12.59;100.00;99879.06;4867457;29;20060;-76
2022/10/24 03:37:00;;;;;;;6.85;3.33;;;13.80;99.90;;;12.51;100.00;99889.38;4862239;29;20044;-76
2022/10/24 03:39:26;;;;;;;8.82;3.13;;;13.80;99.90;;;12.42;100.00;99885.34;4851300;29;20036;-74
2022/10/24 03:41:52;;;;;;;8.85;3.05;;;13.70;99.90;;;12.37;100.00;99875.19;4856781;29;20072;-78
2022/10/24 03:44:17;;;;;;;8.52;3.40;;;13.70;99.90;;;12.54;100.00;99882.53;4859955;29;20485;-76
2022/10/24 03:46:43;;;;;;;7.47;3.35;;;13.80;99.90;;;12.59;100.00;99881.81;4863110;29;20374;-74
2022/10/24 03:49:09;;;;;;;9.45;3.15;;;13.80;99.90;;;12.60;100.00;99881.56;4860726;29;20117;-77
2022/10/24 03:51:35;;;;;;;7.50;3.05;;;13.90;99.90;;;12.51;100.00;99872.94;4857001;29;20376;-75
2022/10/24 03:54:00;;;;;;;10.30;3.17;;;13.90;99.90;;;12.49;100.00;99885.19;4861277;29;20071;-77
2022/10/24 03:56:26;;;;;;;10.13;3.38;;;13.80;99.90;;;12.36;100.00;99881.72;4858663;29;20454;-77
2022/10/24 03:58:52;;;;;;;10.05;3.15;;;13.80;99.90;;;12.20;100.00;99880.63;4863280;29;20036;-81
2022/10/24 04:01:23;;;;;;;7.32;3.20;;;13.60;99.90;;;12.21;100.00;99892.38;4869499;29;20041;-80
2022/10/24 04:03:49;;;;;;;10.43;3.30;;;13.50;99.90;;;12.19;100.00;99878.94;4860713;29;20619;-77
2022/10/24 04:06:15;;;;;;;10.40;3.58;;;13.50;99.90;;;12.25;100.00;99895.47;4841920;29;20042;-77
2022/10/24 04:08:40;;;;;;;8.40;3.80;;;13.50;99.90;;;12.33;100.00;99886.84;4860221;29;20052;-79
2022/10/24 04:11:07;;;;;;;9.77;3.28;;;13.60;99.90;;;12.46;100.00;99880.22;4859995;29;20097;-77
2022/10/24 04:13:34;;;;;;;8.98;3.70;;;13.70;99.90;;;12.47;100.00;99870.94;4858694;29;20055;-74
2022/10/24 04:16:00;;;;;;;11.55;3.53;;;13.80;99.90;;;12.54;100.00;99884.47;4859525;29;20123;-76
2022/10/24 04:18:26;;;;;;;8.90;3.50;;;13.80;99.90;;;12.41;100.00;99877.41;4861669;29;20116;-77
2022/10/24 04:20:52;;;;;;;10.00;3.70;;;13.70;99.90;;;12.33;100.00;99893.16;4861953;29;20033;-77
2022/10/24 04:23:17;;;;;;;9.23;3.25;;;13.70;99.90;;;12.39;100.00;99888.59;4866587;29;20049;-79
2022/10/24 04:25:44;;;;;;;12.75;3.63;;;13.70;99.90;;;12.37;100.00;99896.22;4864184;29;20037;-76
2022/10/24 04:28:10;;;;;;;10.30;3.78;;;13.70;99.90;;;12.37;100.00;99893.47;4859929;29;20040;-75
2022/10/24 04:30:36;;;;;;;9.82;4.20;;;13.60;99.90;;;12.35;100.00;99891.00;4864327;29;20498;-74
2022/10/24 04:33:02;;;;;;;11.95;4.38;;;13.70;99.90;;;12.23;100.00;99884.75;4867712;29;20033;-76
2022/10/24 04:35:28;;;;;;;13.63;4.18;;;13.60;99.90;;;12.15;100.00;99888.72;4870756;29;20045;-80
2022/10/24 04:37:53;;;;;;;10.43;4.30;;;13.50;99.90;;;12.14;100.00;99883.53;4876272;29;20056;-78
2022/10/24 04:40:19;;;;;;;15.05;4.43;;;13.40;99.90;;;12.19;100.00;99878.94;4860963;29;20097;-77
2022/10/24 04:42:45;;;;;;;8.70;3.70;;;13.50;99.90;;;12.10;100.00;99885.09;4859687;29;20446;-80
2022/10/24 04:45:11;;;;;;;13.82;4.50;;;13.40;99.90;;;11.91;100.00;99861.47;4865355;29;20040;-81
2022/10/24 04:47:37;;;;;;;13.00;4.28;;;13.40;99.90;;;11.96;100.00;99868.13;4871833;29;20036;-79
2022/10/24 04:50:04;;;;;;;8.95;4.28;;;13.30;99.90;;;11.97;100.00;99878.00;4874475;29;20496;-79
2022/10/24 04:52:30;;;;;;;14.27;5.07;;;13.30;99.90;;;11.95;100.00;99872.75;4871759;29;20050;-80
2022/10/24 04:54:55;;;;;;;13.90;4.18;;;13.30;99.90;;;11.99;100.00;99867.63;4876765;29;20239;-78
2022/10/24 04:57:21;;;;;;;14.52;4.85;;;13.30;99.90;;;12.00;100.00;99869.28;4871556;29;20481;-79
2022/10/24 04:59:47;;;;;;;11.52;4.63;;;13.30;99.90;;;12.00;100.00;99877.50;4873538;29;20063;-80
2022/10/24 05:02:13;;;;;;;13.48;4.38;;;13.30;99.90;;;12.11;100.00;99882.09;4863350;29;20041;-79
2022/10/24 05:04:38;;;;;;;13.70;4.22;;;13.30;99.90;;;12.14;100.00;99889.81;4867856;29;20071;-78
2022/10/24 05:07:04;;;;;;;11.70;4.22;;;13.40;99.90;;;12.17;100.00;99894.78;4855265;29;20065;-79
2022/10/24 05:09:30;;;;;;;13.13;4.55;;;13.40;99.90;;;12.11;100.00;99879.34;4868390;29;20072;-81
2022/10/24 05:11:56;;;;;;;9.93;3.42;;;13.40;99.90;;;12.19;100.00;99878.94;4860789;29;20524;-81
2022/10/24 05:14:23;;;;;;;10.00;3.83;;;13.50;99.90;;;12.13;100.00;99862.72;4867891;29;20044;-78
2022/10/24 05:16:49;;;;;;;14.75;4.03;;;13.50;99.90;;;12.23;100.00;99861.00;4860905;29;20038;-78
2022/10/24 05:19:18;;;;;;;13.10;3.38;;;13.60;99.90;;;12.42;100.00;99873.59;4862326;29;20101;-78
2022/10/24 05:21:44;;;;;;;11.05;3.97;;;13.70;99.90;;;12.48;100.00;99870.72;4858854;29;20044;-81
2022/10/24 05:24:10;;;;;;;11.63;4.55;;;13.80;99.90;;;12.52;100.00;99855.44;4866693;29;20104;-76
2022/10/24 05:26:36;;;;;;;12.77;4.30;;;13.80;99.90;;;12.69;100.00;99864.72;4858162;29;20041;-76
2022/10/24 05:29:02;;;;;;;10.80;3.78;;;13.90;99.90;;;12.82;100.00;99858.88;4864813;29;20089;-77
2022/10/24 05:31:28;;;;;;;9.15;3.30;;;14.10;99.90;;;12.89;100.00;99865.03;4867634;29;20048;-76
2022/10/24 05:33:53;;;;;;;10.30;3.45;;;14.10;99.90;;;12.97;100.00;99858.28;4869397;29;20041;-78
2022/10/24 05:36:19;;;;;;;8.35;3.47;;;14.20;99.90;;;13.09;100.00;99855.44;4856029;29;20037;-74
2022/10/24 05:38:45;;;;;;;12.88;3.25;;;14.30;99.90;;;13.25;100.00;99848.25;4863199;29;20037;-75
2022/10/24 05:41:11;;;;;;;11.38;3.00;;;14.50;99.90;;;13.32;100.00;99853.53;4853956;29;20040;-72
2022/10/24 05:43:36;;;;;;;9.57;3.55;;;14.60;99.90;;;13.46;100.00;99848.53;4858858;29;20044;-75
2022/10/24 05:46:02;;;;;;;10.68;2.95;;;14.70;99.90;;;13.56;100.00;99848.69;4859008;29;20685;-76
2022/10/24 05:48:28;;;;;;;8.35;2.92;;;14.80;99.90;;;13.56;100.00;99853.31;4858348;29;20533;-76
2022/10/24 05:50:57;;;;;;;10.43;3.33;;;14.80;99.90;;;13.53;100.00;99854.69;4851870;29;20029;-76
2022/10/24 05:53:24;;;;;;;9.35;3.28;;;14.80;99.90;;;13.43;100.00;99843.56;4854314;29;20116;-75
2022/10/24 05:55:50;;;;;;;13.95;3.70;;;14.80;99.90;;;13.41;100.00;99856.66;4847813;29;20037;-74
2022/10/24 05:58:19;;;;;;;10.82;3.17;;;14.70;99.90;;;13.36;100.00;99855.53;4848402;29;20032;-77
2022/10/24 06:00:47;;;;;;;9.40;3.58;;;14.70;99.90;;;13.35;100.00;99862.09;4859768;29;20044;-75
2022/10/24 06:03:13;;;;;;;13.75;3.28;;;14.70;99.90;;;13.35;100.00;99862.09;4850879;29;20037;-75
2022/10/24 06:05:38;;;;;;;8.82;2.90;;;14.60;99.90;;;13.43;100.00;99862.75;4852119;29;20060;-76
2022/10/24 06:08:04;;;;;;;7.97;3.00;;;14.70;99.90;;;13.44;100.00;99869.88;4847000;29;20033;-75
2022/10/24 06:10:30;;;;;;;9.93;3.17;;;14.70;99.90;;;13.34;100.00;99868.66;4848877;29;20036;-76
2022/10/24 06:12:56;;;;;;;15.20;3.25;;;14.70;99.90;;;13.45;100.00;99883.34;4856609;29;20034;-75
2022/10/24 06:15:22;;;;;;;7.53;2.72;;;14.70;99.90;;;13.38;100.00;99860.75;4850803;29;21441;-76
2022/10/24 06:17:49;;;;;;;10.20;3.10;;;14.80;99.90;;;13.46;100.00;99878.69;4848188;29;20030;-77
2022/10/24 06:20:15;;;;;;;9.02;2.85;;;14.80;99.90;;;13.52;100.00;99875.75;4855791;29;20065;-77
2022/10/24 06:22:44;;;;;;;10.00;2.95;;;14.80;99.90;;;13.51;100.00;99873.25;4858242;29;20037;-76
2022/10/24 06:25:11;;;;;;;13.20;2.78;;;14.80;99.90;;;13.50;100.00;99861.47;4853174;29;20041;-77
2022/10/24 06:27:38;;;;;;;9.23;2.88;;;14.80;99.90;;;13.61;100.00;99870.66;4849461;29;20045;-76
2022/10/24 06:30:06;;;;;;;8.88;2.80;;;14.80;99.90;;;13.71;100.00;99860.88;4839969;29;20045;-76
2022/10/24 06:32:32;;;;;;;12.35;3.60;;;15.00;99.90;;;13.85;100.00;99886.81;4856848;29;20672;-77
2022/10/24 06:34:57;;;;;;;7.53;3.10;;;15.10;99.90;;;13.73;100.00;99869.69;4856535;29;20053;-77
2022/10/24 06:37:23;;;;;;;13.07;3.40;;;15.10;99.90;;;13.73;100.00;99859.56;4855985;29;20088;-75
2022/10/24 06:39:49;;;;;;;13.68;3.28;;;15.10;99.90;;;13.83;100.00;99871.72;4852665;29;20396;-75
2022/10/24 06:42:15;;;;;;;7.00;2.55;;;15.10;99.90;;;13.77;100.00;99857.09;4850091;29;20814;-75
2022/10/24 06:44:41;;;;;;;8.25;2.75;;;15.10;99.90;;;13.85;100.00;99862.16;4863583;29;20049;-76
2022/10/24 06:47:06;;;;;;;8.30;2.63;;;15.20;99.90;;;13.92;100.00;99873.72;4862155;29;20029;-78
2022/10/24 06:49:32;;;;;;;9.15;2.95;;;15.20;99.90;;;13.85;100.00;99884.09;4860716;29;20029;-79
2022/10/24 06:51:58;;;;;;;8.55;3.10;;;15.20;99.90;;;13.77;100.00;99882.63;4853679;29;20087;-76
2022/10/24 06:54:24;;;;;;;7.57;2.90;;;15.10;99.90;;;13.74;100.00;99887.78;4856338;29;20111;-78
2022/10/24 06:56:49;;;;;;;7.90;2.72;;;15.10;99.90;;;13.74;100.00;99893.25;4848505;29;20044;-74
2022/10/24 06:59:17;;;;;;;9.77;3.20;;;15.10;99.90;;;13.69;100.00;99874.88;4851647;29;20040;-77
2022/10/24 07:01:44;;;;;;;10.25;2.80;;;15.00;99.90;;;13.84;100.00;99892.56;4865122;29;20502;-79
2022/10/24 07:04:10;;;;;;;9.10;3.53;;;15.10;99.90;;;13.92;100.00;99890.19;4862250;29;20087;-76
2022/10/24 07:06:36;;;;;;;9.20;2.80;;;15.20;99.90;;;13.92;100.00;99894.81;4863033;29;20055;-76
2022/10/24 07:09:04;;;;;;;8.40;2.95;;;15.30;99.90;;;14.05;100.00;99899.06;4858261;29;20513;-76
2022/10/24 07:11:32;;;;;;;6.63;2.97;;;15.40;99.90;;;14.04;100.00;99889.19;4846917;29;20029;-76
2022/10/24 07:13:58;;;;;;;9.93;3.05;;;15.40;99.90;;;14.15;100.00;99909.31;4859714;29;20033;-77
2022/10/24 07:16:24;;;;;;;7.30;2.55;;;15.40;99.90;;;14.12;100.00;99893.38;4857739;29;20052;-76
2022/10/24 07:18:51;;;;;;;9.13;3.08;;;15.50;99.90;;;14.19;100.00;99900.34;4857883;29;20037;-76
2022/10/24 07:21:26;;;;;;;10.63;2.60;;;15.50;99.90;;;14.26;100.00;99902.03;4856471;29;20044;-76
2022/10/24 07:23:53;;;;;;;7.10;2.88;;;15.60;99.90;;;14.36;100.00;99911.19;4850917;29;20470;-75
2022/10/24 07:26:21;;;;;;;7.63;2.45;;;15.60;99.90;;;14.50;100.00;99900.59;4858310;29;20072;-75
2022/10/24 07:28:52;;;;;;;;;;;15.80;99.90;;;14.58;100.00;99901.22;4860031;29;20046;-76
2022/10/24 07:31:21;;;;;;;8.55;2.50;;;15.80;99.90;;;14.64;100.00;99905.66;4857271;29;19920;-77
2022/10/24 07:33:47;;;;;;;9.13;2.63;;;16.00;99.90;;;14.76;100.00;99917.31;4846760;29;20033;-77
2022/10/24 07:36:22;;;;;;;10.35;2.45;;;16.00;99.90;;;14.87;100.00;99920.16;4847576;29;20389;-76
2022/10/24 07:38:51;;;;;;;8.52;2.65;;;16.10;99.90;;;14.90;100.00;99914.94;4860720;29;20081;-78
2022/10/24 07:41:17;;;;;;;8.60;2.72;;;16.20;99.90;;;15.00;100.00;99921.63;4868598;29;20061;-77
2022/10/24 07:43:44;;;;;;;7.30;2.47;;;16.20;99.90;;;15.08;100.00;99918.38;4862570;29;20037;-80
2022/10/24 07:46:13;;;;;;;9.03;2.60;;;16.30;99.90;;;15.15;100.00;99915.41;4856416;29;20554;-78
2022/10/24 07:48:41;;;;;;;9.98;2.97;;;16.40;99.90;;;15.30;100.00;99915.47;4856388;29;20352;-79
2022/10/24 07:51:08;;;;;;;;;;;16.50;99.90;;;15.47;100.00;99911.72;4858244;29;20034;-78
2022/10/24 07:53:35;;;;;;;9.45;2.65;;;16.60;99.90;;;15.62;100.00;99922.75;4846865;29;19916;-77
2022/10/24 07:56:01;;;;;;;9.63;2.38;;;16.80;99.90;;;15.74;100.00;99905.22;4834246;29;20108;-81
2022/10/24 07:58:28;;;;;;;8.90;2.25;;;17.00;99.90;;;15.86;100.00;99918.75;4856648;29;20033;-77
2022/10/24 08:00:54;;;;;;;8.60;2.50;;;17.10;99.90;;;15.86;100.00;99914.06;4855135;29;20036;-79
2022/10/24 08:03:21;;;;;;;9.00;2.95;;;17.10;99.90;;;15.98;100.00;99922.09;4862794;29;20029;-77
2022/10/24 08:05:47;;;;;;;7.72;2.50;;;17.20;99.90;;;16.15;98.29;99916.34;4854785;29;20055;-78
2022/10/24 08:08:12;;;;;;;9.10;2.50;;;17.30;99.90;;;16.24;98.55;99914.75;4852099;29;20501;-80
2022/10/24 08:10:38;;;;;;;8.07;2.35;;;17.40;99.90;;;16.28;96.48;99905.94;4856100;29;20057;-77
2022/10/24 08:13:04;;;;;;;8.60;2.70;;;17.50;99.90;;;16.48;95.11;99914.22;4860653;29;20034;-81
2022/10/24 08:15:30;;;;;;;6.78;2.35;;;17.70;99.90;;;16.62;93.74;99903.50;4857115;29;20060;-78
2022/10/24 08:17:56;;;;;;;9.95;2.60;;;17.80;99.90;;;16.72;91.69;99913.69;4855994;29;20443;-77
2022/10/24 08:20:25;;;;;;;6.75;2.10;;;17.90;99.90;;;16.82;92.11;99912.81;4855982;29;20477;-81
2022/10/24 08:22:51;;;;;;;8.65;2.20;;;18.00;99.90;;;16.82;90.43;99912.81;4859362;29;20041;-79
2022/10/24 08:25:17;;;;;;;9.73;2.47;;;18.10;99.90;;;16.90;90.12;99906.78;4855517;29;20080;-78
2022/10/24 08:27:43;;;;;;;8.95;2.40;;;18.10;99.90;;;16.89;88.46;99902.38;4858260;29;20064;-79
2022/10/24 08:30:09;;;;;;;11.15;2.22;;;18.20;99.90;;;17.02;88.79;99895.50;4860619;29;20025;-77
2022/10/24 08:32:37;;;;;;;11.57;2.55;;;18.20;99.90;;;17.05;87.83;99916.13;4861185;29;20033;-78
2022/10/24 08:35:04;;;;;;;8.30;2.47;;;18.30;99.90;;;17.04;88.14;99911.72;4857202;29;20037;-78
2022/10/24 08:37:30;;;;;;;8.85;2.60;;;18.30;99.90;;;17.02;87.79;99906.50;4854111;29;20083;-83
2022/10/24 08:39:56;;;;;;;10.10;2.47;;;18.30;99.90;;;17.12;86.87;99911.19;4853627;29;20065;-79
2022/10/24 08:42:24;;;;;;;8.07;2.38;;;18.30;99.90;;;17.16;87.22;99908.69;4857329;29;20048;-78
2022/10/24 08:44:51;;;;;;;8.55;2.58;;;18.40;99.90;;;17.24;86.93;99902.63;4860292;29;20048;-80
2022/10/24 08:47:41;;;;;;;10.75;3.03;;;18.40;99.90;;;17.36;86.03;99922.41;4862345;29;20095;-80
2022/10/24 08:50:32;;;;;;;10.30;2.45;;;18.60;99.90;;;17.48;84.60;99907.47;4863162;29;20058;-81
2022/10/24 08:53:12;;;;;;;8.95;2.75;;;18.70;99.90;;;17.61;82.93;99917.91;4858023;29;20340;-77
2022/10/24 08:55:48;;;;;;;6.78;2.05;;;18.70;99.90;;;17.68;82.61;99899.13;4854789;29;20481;-78
2022/10/24 08:58:23;;;;;;;8.07;2.13;;;18.80;99.90;;;17.88;81.47;99910.34;4857199;29;20097;-78
2022/10/24 09:00:54;;;;;;;6.60;2.00;;;19.10;99.90;;;18.06;79.95;99915.25;4851979;29;20037;-76
2022/10/24 09:03:46;;;;;;;11.52;2.30;;;19.20;99.90;;;18.16;77.27;99916.28;4853546;29;20151;-78
2022/10/24 09:06:19;;;;;;;5.72;1.80;;;19.30;99.90;;;18.07;75.27;99874.69;4851757;29;20037;-82
2022/10/24 09:09:28;;;;;;;7.35;1.80;;;19.40;99.90;;;18.23;74.97;99909.34;4842533;29;20033;-76
2022/10/24 09:12:12;;;;;;;7.68;1.80;;;19.40;99.90;;;18.22;73.51;99904.94;4865275;29;20488;-78
2022/10/24 09:14:42;;;;;;;8.00;2.17;;;19.50;99.90;;;18.35;72.90;99903.47;4858934;29;20197;-78
2022/10/24 09:17:32;;;;;;;8.32;2.38;;;19.60;99.90;;;18.52;74.48;99908.56;4857045;29;20037;-82
2022/10/24 09:20:16;;;;;;;4.88;1.77;;;19.60;99.90;;;18.68;73.64;99908.47;4856383;29;20030;-79
2022/10/24 09:22:42;;;;;;;9.02;2.22;;;19.80;99.90;;;18.82;72.92;99903.09;4848602;29;20434;-81
2022/10/24 09:25:21;;;;;;;4.35;1.58;;;19.90;99.90;;;18.92;71.23;99902.16;4862045;29;20037;-80
2022/10/24 09:27:47;;;;;;;;;;;20.00;99.90;;;18.87;69.24;99893.94;4856902;29;20098;-79
2022/10/24 09:30:26;;;;;;;10.32;1.90;;;20.10;99.90;;;18.93;69.05;99903.81;4839292;29;19939;-78
2022/10/24 09:32:54;;;;;;;;;;;20.20;99.90;;;19.09;70.68;99901.75;4861523;29;20127;-80
2022/10/24 09:35:25;;;;;;;7.88;1.80;;;20.40;99.90;;;19.22;67.67;99905.75;4848939;29;19971;-77
2022/10/24 09:37:57;;;;;;;6.05;1.80;;;20.70;99.90;;;19.33;66.12;99920.31;4855652;29;20044;-78
2022/10/24 09:40:33;;;;;;;8.07;1.80;;;20.90;99.90;;;19.32;66.77;99902.88;4857474;29;20045;-77
2022/10/24 09:43:21;;;;;;;7.15;1.75;;;21.00;99.90;;;19.60;63.71;99914.16;4852281;29;20570;-80
2022/10/24 09:46:02;;;;;;;8.10;1.60;;;21.20;99.90;;;20.22;62.00;99921.69;4862177;29;20037;-81
2022/10/24 09:48:40;;;;;;;7.38;1.83;;;21.60;99.90;;;21.10;59.33;99928.59;4862856;29;20112;-77
2022/10/24 09:51:07;;;;;;;8.55;2.45;;;22.30;99.90;;;22.18;55.26;99916.41;4858020;29;20040;-78
2022/10/24 09:53:36;;;;;;;7.90;2.15;;;;;;;22.25;53.78;99935.44;4856617;29;20025;-81
2022/10/24 09:56:13;;;;;;;6.75;1.75;;;;;;;22.56;52.17;99926.41;4847540;29;20070;-80
2022/10/24 09:58:42;;;;;;;6.40;1.92;;;;;;;23.28;50.23;99932.09;4853663;29;20052;-80
2022/10/24 10:01:14;;;;;;;7.28;1.60;;;;;;;23.50;48.68;99938.72;4845679;29;20049;-78
2022/10/24 10:03:41;;;;;;;6.00;2.08;;;;;;;23.29;49.36;99944.84;4860969;29;20184;-77
2022/10/24 10:06:18;;;;;;;6.78;1.70;;;;;;;23.17;49.48;99916.81;4857513;29;20336;-80
2022/10/24 10:08:52;;;;;;;6.95;1.90;;;;;;;23.16;49.57;99941.00;4855418;29;20036;-76
2022/10/24 10:11:30;;;;;;;7.13;1.70;;;;;;;23.35;49.83;99940.81;4847683;29;20105;-80
2022/10/24 10:14:00;;;;;;;5.70;1.80;;;;;;;23.20;49.23;99942.00;4855934;29;20397;-78
2022/10/24 10:16:32;;;;;;;11.05;1.80;;;;;;;22.18;52.06;99935.88;4851063;29;20048;-75
2022/10/24 10:19:02;;;;;;;7.22;2.03;;;;;;;22.03;52.30;99944.56;4859649;29;20068;-79
2022/10/24 10:22:04;;;;;;;7.60;2.13;;;23.10;98.60;;;21.52;53.26;99925.84;4846146;29;20060;-76
2022/10/24 10:24:42;;;;;;;8.35;1.80;;;22.80;93.30;;;21.24;54.95;99922.25;4851845;29;20085;-78
2022/10/24 10:27:30;;;;;;;11.02;1.80;;;22.60;94.30;;;21.22;56.51;99943.91;4854419;29;20105;-79
2022/10/24 10:30:23;;;;;;;6.72;1.90;;;22.30;95.50;;;21.04;57.18;99945.59;4861260;29;20044;-80
2022/10/24 10:33:10;;;;;;;8.10;2.10;;;22.20;95.90;;;20.70;58.75;99937.28;4858523;29;20512;-76